sensor_id;sensor_type;location;lat;lon;timestamp;pressure;altitude;pressure_sealevel;temperature;humidity
41254;BME280;26987;59.928;30.306;2022-10-16T00:01:35;101556.28;;;10.16;92.75
41254;BME280;26987;59.928;30.306;2022-10-16T00:04:04;101555.44;;;10.15;92.98
41254;BME280;26987;59.928;30.306;2022-10-16T00:06:33;101558.78;;;10.17;93.29
41254;BME280;26987;59.928;30.306;2022-10-16T00:09:01;101555.00;;;10.12;92.43
41254;BME280;26987;59.928;30.306;2022-10-16T00:11:31;101548.97;;;10.09;92.98
41254;BME280;26987;59.928;30.306;2022-10-16T00:14:01;101549.16;;;10.08;92.95
41254;BME280;26987;59.928;30.306;2022-10-16T00:16:30;101551.22;;;10.06;93.27
41254;BME280;26987;59.928;30.306;2022-10-16T00:18:58;101551.75;;;10.01;93.36
41254;BME280;26987;59.928;30.306;2022-10-16T00:21:28;101551.94;;;10.00;93.98
41254;BME280;26987;59.928;30.306;2022-10-16T00:24:16;101552.94;;;9.99;93.92
41254;BME280;26987;59.928;30.306;2022-10-16T00:26:44;101553.31;;;9.95;93.99
41254;BME280;26987;59.928;30.306;2022-10-16T00:29:12;101553.50;;;9.94;93.94
41254;BME280;26987;59.928;30.306;2022-10-16T00:31:40;101548.16;;;9.94;93.73
41254;BME280;26987;59.928;30.306;2022-10-16T00:34:07;101552.66;;;9.93;93.96
41254;BME280;26987;59.928;30.306;2022-10-16T00:36:35;101548.16;;;9.94;93.94
41254;BME280;26987;59.928;30.306;2022-10-16T00:39:03;101542.31;;;9.90;93.79
41254;BME280;26987;59.928;30.306;2022-10-16T00:41:33;101547.97;;;9.95;93.82
41254;BME280;26987;59.928;30.306;2022-10-16T00:44:03;101538.25;;;9.94;93.59
41254;BME280;26987;59.928;30.306;2022-10-16T00:46:35;101542.41;;;9.97;93.96
41254;BME280;26987;59.928;30.306;2022-10-16T00:49:08;101540.94;;;9.94;93.50
41254;BME280;26987;59.928;30.306;2022-10-16T00:51:39;101549.25;;;10.00;93.60
41254;BME280;26987;59.928;30.306;2022-10-16T00:54:11;101542.88;;;10.01;93.71
41254;BME280;26987;59.928;30.306;2022-10-16T00:56:43;101543.72;;;10.01;93.37
41254;BME280;26987;59.928;30.306;2022-10-16T00:59:16;101535.03;;;9.99;93.68
41254;BME280;26987;59.928;30.306;2022-10-16T01:01:44;101536.41;;;9.95;93.89
41254;BME280;26987;59.928;30.306;2022-10-16T01:04:12;101530.13;;;9.88;93.85
41254;BME280;26987;59.928;30.306;2022-10-16T01:06:53;101520.97;;;9.82;94.40
41254;BME280;26987;59.928;30.306;2022-10-16T01:09:27;101523.84;;;9.80;94.33
41254;BME280;26987;59.928;30.306;2022-10-16T01:12:06;101535.09;;;9.76;94.77
41254;BME280;26987;59.928;30.306;2022-10-16T01:14:42;101534.13;;;9.68;95.37
41254;BME280;26987;59.928;30.306;2022-10-16T01:17:18;101536.19;;;9.66;95.53
41254;BME280;26987;59.928;30.306;2022-10-16T01:20:03;101541.97;;;9.70;95.23
41254;BME280;26987;59.928;30.306;2022-10-16T01:22:39;101534.53;;;9.65;95.49
41254;BME280;26987;59.928;30.306;2022-10-16T01:25:14;101529.03;;;9.58;95.91
41254;BME280;26987;59.928;30.306;2022-10-16T01:27:46;101527.75;;;9.54;95.82
41254;BME280;26987;59.928;30.306;2022-10-16T01:30:19;101540.59;;;9.59;96.02
41254;BME280;26987;59.928;30.306;2022-10-16T01:32:51;101532.44;;;9.52;95.26
41254;BME280;26987;59.928;30.306;2022-10-16T01:35:23;101540.59;;;9.59;95.77
41254;BME280;26987;59.928;30.306;2022-10-16T01:37:55;101539.22;;;9.63;95.35
41254;BME280;26987;59.928;30.306;2022-10-16T01:40:27;101539.31;;;9.70;95.15
41254;BME280;26987;59.928;30.306;2022-10-16T01:43:00;101534.44;;;9.74;95.42
41254;BME280;26987;59.928;30.306;2022-10-16T01:45:30;101541.25;;;9.76;95.05
41254;BME280;26987;59.928;30.306;2022-10-16T01:48:00;101529.38;;;9.79;94.74
41254;BME280;26987;59.928;30.306;2022-10-16T01:50:33;101535.53;;;9.79;94.70
41254;BME280;26987;59.928;30.306;2022-10-16T01:53:03;101524.44;;;9.67;94.33
41254;BME280;26987;59.928;30.306;2022-10-16T01:55:35;101529.44;;;9.70;94.59
41254;BME280;26987;59.928;30.306;2022-10-16T01:58:07;101533.69;;;9.65;94.70
41254;BME280;26987;59.928;30.306;2022-10-16T02:00:38;101534.88;;;9.62;95.48
41254;BME280;26987;59.928;30.306;2022-10-16T02:03:09;101532.38;;;9.61;95.40
41254;BME280;26987;59.928;30.306;2022-10-16T02:05:41;101529.03;;;9.58;95.63
41254;BME280;26987;59.928;30.306;2022-10-16T02:08:12;101527.22;;;9.59;95.15
41254;BME280;26987;59.928;30.306;2022-10-16T02:10:40;101524.53;;;9.59;95.13
41254;BME280;26987;59.928;30.306;2022-10-16T02:13:12;101521.19;;;9.57;95.37
41254;BME280;26987;59.928;30.306;2022-10-16T02:15:42;101529.59;;;9.54;95.34
41254;BME280;26987;59.928;30.306;2022-10-16T02:18:10;101524.41;;;9.52;96.12
41254;BME280;26987;59.928;30.306;2022-10-16T02:20:44;101523.19;;;9.55;96.10
41254;BME280;26987;59.928;30.306;2022-10-16T02:23:19;101520.91;;;9.52;95.54
41254;BME280;26987;59.928;30.306;2022-10-16T02:25:53;101519.94;;;9.44;96.19
41254;BME280;26987;59.928;30.306;2022-10-16T02:28:28;101524.84;;;9.41;96.80
41254;BME280;26987;59.928;30.306;2022-10-16T02:31:01;101512.53;;;9.31;96.68
41254;BME280;26987;59.928;30.306;2022-10-16T02:33:31;101515.75;;;9.27;96.29
41254;BME280;26987;59.928;30.306;2022-10-16T02:36:01;101517.47;;;9.19;97.12
41254;BME280;26987;59.928;30.306;2022-10-16T02:38:30;101517.16;;;9.14;97.61
41254;BME280;26987;59.928;30.306;2022-10-16T02:40:58;101515.50;;;9.13;97.55
41254;BME280;26987;59.928;30.306;2022-10-16T02:43:28;101509.53;;;9.11;97.81
41254;BME280;26987;59.928;30.306;2022-10-16T02:45:56;101511.16;;;9.12;98.10
41254;BME280;26987;59.928;30.306;2022-10-16T02:48:23;101506.00;;;9.11;97.54
41254;BME280;26987;59.928;30.306;2022-10-16T02:50:51;101506.84;;;9.11;97.36
41254;BME280;26987;59.928;30.306;2022-10-16T02:53:19;101505.16;;;9.10;97.74
41254;BME280;26987;59.928;30.306;2022-10-16T02:55:47;101504.69;;;9.06;97.53
41254;BME280;26987;59.928;30.306;2022-10-16T02:58:15;101498.19;;;9.01;97.98
41254;BME280;26987;59.928;30.306;2022-10-16T03:00:44;101503.53;;;9.01;98.22
41254;BME280;26987;59.928;30.306;2022-10-16T03:03:12;101495.91;;;8.98;98.25
41254;BME280;26987;59.928;30.306;2022-10-16T03:05:40;101492.41;;;8.89;98.75
41254;BME280;26987;59.928;30.306;2022-10-16T03:08:12;101496.25;;;8.94;98.61
41254;BME280;26987;59.928;30.306;2022-10-16T03:10:40;101489.56;;;8.90;98.67
41254;BME280;26987;59.928;30.306;2022-10-16T03:13:08;101494.91;;;8.90;99.34
41254;BME280;26987;59.928;30.306;2022-10-16T03:15:36;101492.78;;;8.86;99.54
41254;BME280;26987;59.928;30.306;2022-10-16T03:18:05;101486.59;;;8.85;99.85
41254;BME280;26987;59.928;30.306;2022-10-16T03:20:33;101488.63;;;8.83;99.88
41254;BME280;26987;59.928;30.306;2022-10-16T03:23:01;101481.63;;;8.82;99.82
41254;BME280;26987;59.928;30.306;2022-10-16T03:25:29;101479.97;;;8.81;99.90
41254;BME280;26987;59.928;30.306;2022-10-16T03:27:57;101484.47;;;8.80;100.00
41254;BME280;26987;59.928;30.306;2022-10-16T03:30:25;101487.59;;;8.84;100.00
41254;BME280;26987;59.928;30.306;2022-10-16T03:32:53;101484.47;;;8.80;99.82
41254;BME280;26987;59.928;30.306;2022-10-16T03:35:23;101483.44;;;8.81;100.00
41254;BME280;26987;59.928;30.306;2022-10-16T03:37:51;101495.16;;;8.80;100.00
41254;BME280;26987;59.928;30.306;2022-10-16T03:40:19;101490.66;;;8.81;100.00
41254;BME280;26987;59.928;30.306;2022-10-16T03:42:47;101489.16;;;8.78;100.00
41254;BME280;26987;59.928;30.306;2022-10-16T03:45:15;101491.00;;;8.78;100.00
41254;BME280;26987;59.928;30.306;2022-10-16T03:47:43;101483.97;;;8.77;100.00
41254;BME280;26987;59.928;30.306;2022-10-16T03:50:11;101487.84;;;8.74;100.00
41254;BME280;26987;59.928;30.306;2022-10-16T03:52:40;101485.66;;;8.78;100.00
41254;BME280;26987;59.928;30.306;2022-10-16T03:55:09;101486.66;;;8.77;100.00
41254;BME280;26987;59.928;30.306;2022-10-16T03:57:36;101482.84;;;8.71;100.00
41254;BME280;26987;59.928;30.306;2022-10-16T04:00:05;101481.34;;;8.68;100.00
41254;BME280;26987;59.928;30.306;2022-10-16T04:02:38;101487.41;;;8.62;100.00
41254;BME280;26987;59.928;30.306;2022-10-16T04:05:06;101483.06;;;8.61;100.00
41254;BME280;26987;59.928;30.306;2022-10-16T04:07:35;101482.94;;;8.54;100.00
41254;BME280;26987;59.928;30.306;2022-10-16T04:10:05;101489.25;;;8.53;100.00
41254;BME280;26987;59.928;30.306;2022-10-16T04:12:33;101480.09;;;8.48;100.00
41254;BME280;26987;59.928;30.306;2022-10-16T04:15:01;101491.78;;;8.46;100.00
41254;BME280;26987;59.928;30.306;2022-10-16T04:17:29;101486.78;;;8.43;100.00
41254;BME280;26987;59.928;30.306;2022-10-16T04:19:57;101470.97;;;8.33;100.00
41254;BME280;26987;59.928;30.306;2022-10-16T04:22:25;101477.16;;;8.34;100.00
41254;BME280;26987;59.928;30.306;2022-10-16T04:24:53;101475.66;;;8.31;100.00
41254;BME280;26987;59.928;30.306;2022-10-16T04:27:23;101469.34;;;8.24;100.00
41254;BME280;26987;59.928;30.306;2022-10-16T04:29:51;101459.00;;;8.21;100.00
41254;BME280;26987;59.928;30.306;2022-10-16T04:32:19;101471.72;;;8.19;100.00
41254;BME280;26987;59.928;30.306;2022-10-16T04:34:46;101470.38;;;8.15;100.00
41254;BME280;26987;59.928;30.306;2022-10-16T04:37:14;101475.06;;;8.13;100.00
41254;BME280;26987;59.928;30.306;2022-10-16T04:39:42;101466.56;;;8.09;100.00
41254;BME280;26987;59.928;30.306;2022-10-16T04:42:11;101468.91;;;8.04;100.00
41254;BME280;26987;59.928;30.306;2022-10-16T04:44:40;101457.22;;;8.05;100.00
41254;BME280;26987;59.928;30.306;2022-10-16T04:47:08;101457.41;;;8.03;100.00
41254;BME280;26987;59.928;30.306;2022-10-16T04:49:36;101465.22;;;8.05;100.00
41254;BME280;26987;59.928;30.306;2022-10-16T04:52:04;101454.72;;;8.03;100.00
41254;BME280;26987;59.928;30.306;2022-10-16T04:54:32;101451.03;;;8.04;100.00
41254;BME280;26987;59.928;30.306;2022-10-16T04:57:00;101448.53;;;8.11;100.00
41254;BME280;26987;59.928;30.306;2022-10-16T04:59:28;101439.50;;;8.12;100.00
41254;BME280;26987;59.928;30.306;2022-10-16T05:01:57;101450.16;;;8.20;100.00
41254;BME280;26987;59.928;30.306;2022-10-16T05:04:25;101436.97;;;8.19;100.00
41254;BME280;26987;59.928;30.306;2022-10-16T05:06:53;101439.44;;;8.29;100.00
41254;BME280;26987;59.928;30.306;2022-10-16T05:09:21;101439.94;;;8.32;100.00
41254;BME280;26987;59.928;30.306;2022-10-16T05:11:49;101441.75;;;8.32;100.00
41254;BME280;26987;59.928;30.306;2022-10-16T05:14:17;101440.44;;;8.28;100.00
41254;BME280;26987;59.928;30.306;2022-10-16T05:16:45;101439.44;;;8.29;100.00
41254;BME280;26987;59.928;30.306;2022-10-16T05:19:16;101438.41;;;8.30;100.00
41254;BME280;26987;59.928;30.306;2022-10-16T05:21:44;101438.59;;;8.28;100.00
41254;BME280;26987;59.928;30.306;2022-10-16T05:24:12;101437.94;;;8.26;100.00
41254;BME280;26987;59.928;30.306;2022-10-16T05:26:40;101446.44;;;8.30;100.00
41254;BME280;26987;59.928;30.306;2022-10-16T05:29:09;101442.25;;;8.36;100.00
41254;BME280;26987;59.928;30.306;2022-10-16T05:31:37;101438.78;;;8.58;99.08
41254;BME280;26987;59.928;30.306;2022-10-16T05:34:05;101435.16;;;9.06;96.23
41254;BME280;26987;59.928;30.306;2022-10-16T05:36:34;101443.19;;;9.60;92.70
41254;BME280;26987;59.928;30.306;2022-10-16T05:39:03;101443.09;;;9.68;91.99
41254;BME280;26987;59.928;30.306;2022-10-16T05:41:31;101437.00;;;9.75;90.91
41254;BME280;26987;59.928;30.306;2022-10-16T05:43:59;101437.25;;;9.50;91.92
41254;BME280;26987;59.928;30.306;2022-10-16T05:46:27;101439.16;;;9.26;93.07
41254;BME280;26987;59.928;30.306;2022-10-16T05:48:55;101424.44;;;9.06;93.92
41254;BME280;26987;59.928;30.306;2022-10-16T05:51:23;101421.38;;;8.94;94.11
41254;BME280;26987;59.928;30.306;2022-10-16T05:53:52;101410.03;;;8.84;95.12
41254;BME280;26987;59.928;30.306;2022-10-16T05:56:20;101421.34;;;8.71;95.83
41254;BME280;26987;59.928;30.306;2022-10-16T05:58:49;101418.84;;;8.69;96.46
41254;BME280;26987;59.928;30.306;2022-10-16T06:01:18;101424.03;;;8.71;96.26
41254;BME280;26987;59.928;30.306;2022-10-16T06:03:46;101429.53;;;8.69;96.33
41254;BME280;26987;59.928;30.306;2022-10-16T06:06:16;101413.84;;;8.66;96.38
41254;BME280;26987;59.928;30.306;2022-10-16T06:08:45;101421.88;;;8.66;96.33
41254;BME280;26987;59.928;30.306;2022-10-16T06:11:16;101426.69;;;8.71;96.66
41254;BME280;26987;59.928;30.306;2022-10-16T06:13:44;101429.16;;;8.81;96.60
41254;BME280;26987;59.928;30.306;2022-10-16T06:16:13;101434.44;;;8.89;95.13
41254;BME280;26987;59.928;30.306;2022-10-16T06:18:42;101428.81;;;8.99;95.15
41254;BME280;26987;59.928;30.306;2022-10-16T06:21:11;101423.25;;;9.09;94.07
41254;BME280;26987;59.928;30.306;2022-10-16T06:23:39;101430.28;;;9.25;93.70
41254;BME280;26987;59.928;30.306;2022-10-16T06:26:08;101421.66;;;9.38;92.83
41254;BME280;26987;59.928;30.306;2022-10-16T06:28:38;101426.63;;;9.41;92.47
41254;BME280;26987;59.928;30.306;2022-10-16T06:31:07;101424.97;;;9.40;91.82
41254;BME280;26987;59.928;30.306;2022-10-16T06:33:36;101422.09;;;9.42;92.32
41254;BME280;26987;59.928;30.306;2022-10-16T06:36:06;101412.31;;;9.49;91.68
41254;BME280;26987;59.928;30.306;2022-10-16T06:38:36;101425.09;;;9.47;91.30
41254;BME280;26987;59.928;30.306;2022-10-16T06:41:05;101418.88;;;9.46;90.89
41254;BME280;26987;59.928;30.306;2022-10-16T06:43:33;101426.16;;;9.38;91.45
41254;BME280;26987;59.928;30.306;2022-10-16T06:46:05;101434.38;;;9.36;91.89
41254;BME280;26987;59.928;30.306;2022-10-16T06:48:34;101418.03;;;9.31;92.44
41254;BME280;26987;59.928;30.306;2022-10-16T06:51:03;101427.06;;;9.30;92.63
41254;BME280;26987;59.928;30.306;2022-10-16T06:53:33;101420.34;;;9.34;91.95
41254;BME280;26987;59.928;30.306;2022-10-16T06:56:07;101421.66;;;9.38;92.54
41254;BME280;26987;59.928;30.306;2022-10-16T06:58:35;101419.63;;;9.40;92.34
41254;BME280;26987;59.928;30.306;2022-10-16T07:01:05;101409.75;;;9.56;92.33
41254;BME280;26987;59.928;30.306;2022-10-16T07:03:36;101402.91;;;9.68;90.96
41254;BME280;26987;59.928;30.306;2022-10-16T07:06:06;101397.47;;;9.77;90.03
41254;BME280;26987;59.928;30.306;2022-10-16T07:08:36;101393.16;;;9.76;89.96
41254;BME280;26987;59.928;30.306;2022-10-16T07:11:06;101406.63;;;9.82;90.07
41254;BME280;26987;59.928;30.306;2022-10-16T07:13:34;101390.09;;;9.79;89.78
41254;BME280;26987;59.928;30.306;2022-10-16T07:16:08;101401.00;;;9.77;90.64
41254;BME280;26987;59.928;30.306;2022-10-16T07:18:39;101392.50;;;9.74;90.95
41254;BME280;26987;59.928;30.306;2022-10-16T07:21:09;101390.72;;;9.81;90.91
41254;BME280;26987;59.928;30.306;2022-10-16T07:23:38;101390.66;;;9.89;90.03
41254;BME280;26987;59.928;30.306;2022-10-16T07:26:06;101381.59;;;9.90;89.21
41254;BME280;26987;59.928;30.306;2022-10-16T07:28:35;101376.22;;;9.90;89.63
41254;BME280;26987;59.928;30.306;2022-10-16T07:31:03;101378.53;;;9.93;89.49
41254;BME280;26987;59.928;30.306;2022-10-16T07:33:34;101386.75;;;10.07;89.04
41254;BME280;26987;59.928;30.306;2022-10-16T07:36:04;101381.38;;;10.07;88.84
41254;BME280;26987;59.928;30.306;2022-10-16T07:38:39;101391.50;;;10.27;87.89
41254;BME280;26987;59.928;30.306;2022-10-16T07:41:10;101389.44;;;10.29;88.13
41254;BME280;26987;59.928;30.306;2022-10-16T07:43:38;101395.75;;;10.36;87.30
41254;BME280;26987;59.928;30.306;2022-10-16T07:46:06;101394.97;;;10.42;87.22
41254;BME280;26987;59.928;30.306;2022-10-16T07:48:36;101406.50;;;10.58;87.16
41254;BME280;26987;59.928;30.306;2022-10-16T07:51:05;101399.31;;;10.58;86.05
41254;BME280;26987;59.928;30.306;2022-10-16T07:53:33;101400.75;;;10.61;85.94
41254;BME280;26987;59.928;30.306;2022-10-16T07:56:03;101394.38;;;10.62;86.26
41254;BME280;26987;59.928;30.306;2022-10-16T07:58:32;101384.63;;;10.39;86.08
41254;BME280;26987;59.928;30.306;2022-10-16T08:01:04;101384.03;;;10.22;87.11
41254;BME280;26987;59.928;30.306;2022-10-16T08:03:32;101383.03;;;10.08;87.84
41254;BME280;26987;59.928;30.306;2022-10-16T08:06:02;101376.41;;;10.04;88.61
41254;BME280;26987;59.928;30.306;2022-10-16T08:08:31;101375.13;;;10.00;88.92
41254;BME280;26987;59.928;30.306;2022-10-16T08:10:59;101379.25;;;10.02;89.46
41254;BME280;26987;59.928;30.306;2022-10-16T08:13:27;101373.72;;;10.04;89.01
41254;BME280;26987;59.928;30.306;2022-10-16T08:15:54;101378.06;;;10.05;88.86
41254;BME280;26987;59.928;30.306;2022-10-16T08:18:23;101383.97;;;10.00;88.55
41254;BME280;26987;59.928;30.306;2022-10-16T08:20:55;101384.16;;;9.99;89.76
41254;BME280;26987;59.928;30.306;2022-10-16T08:23:26;101387.66;;;9.99;89.14
41254;BME280;26987;59.928;30.306;2022-10-16T08:25:54;101385.19;;;9.97;88.68
41254;BME280;26987;59.928;30.306;2022-10-16T08:28:23;101375.13;;;10.00;88.65
41254;BME280;26987;59.928;30.306;2022-10-16T08:30:51;101370.75;;;9.99;88.79
41254;BME280;26987;59.928;30.306;2022-10-16T08:33:19;101376.22;;;10.05;88.90
41254;BME280;26987;59.928;30.306;2022-10-16T08:35:51;101371.75;;;10.13;88.22
41254;BME280;26987;59.928;30.306;2022-10-16T08:38:20;101379.88;;;10.19;88.40
41254;BME280;26987;59.928;30.306;2022-10-16T08:40:49;101370.88;;;10.27;87.97
41254;BME280;26987;59.928;30.306;2022-10-16T08:43:29;101362.09;;;10.33;87.76
41254;BME280;26987;59.928;30.306;2022-10-16T08:46:14;101338.28;;;10.24;87.75
41254;BME280;26987;59.928;30.306;2022-10-16T08:48:46;101336.16;;;10.19;87.50
41254;BME280;26987;59.928;30.306;2022-10-16T08:51:19;101340.97;;;10.24;87.45
41254;BME280;26987;59.928;30.306;2022-10-16T08:53:52;101352.53;;;10.24;87.90
41254;BME280;26987;59.928;30.306;2022-10-16T08:56:23;101355.38;;;10.22;88.23
41254;BME280;26987;59.928;30.306;2022-10-16T08:58:52;101354.56;;;10.22;88.00
41254;BME280;26987;59.928;30.306;2022-10-16T09:01:22;101354.97;;;10.26;88.04
41254;BME280;26987;59.928;30.306;2022-10-16T09:04:04;101358.41;;;10.34;88.50
41254;BME280;26987;59.928;30.306;2022-10-16T09:06:45;101357.38;;;10.35;87.66
41254;BME280;26987;59.928;30.306;2022-10-16T09:09:44;101333.78;;;10.46;87.86
41254;BME280;26987;59.928;30.306;2022-10-16T09:12:21;101329.16;;;10.40;87.25
41254;BME280;26987;59.928;30.306;2022-10-16T09:14:54;101347.81;;;10.70;87.13
41254;BME280;26987;59.928;30.306;2022-10-16T09:17:36;101343.19;;;10.57;86.96
41254;BME280;26987;59.928;30.306;2022-10-16T09:20:26;101343.19;;;10.57;87.17
41254;BME280;26987;59.928;30.306;2022-10-16T09:23:12;101345.50;;;10.45;87.60
41254;BME280;26987;59.928;30.306;2022-10-16T09:25:44;101342.28;;;10.50;87.03
41254;BME280;26987;59.928;30.306;2022-10-16T09:28:13;101336.75;;;10.51;86.70
41254;BME280;26987;59.928;30.306;2022-10-16T09:30:42;101333.84;;;10.53;86.82
41254;BME280;26987;59.928;30.306;2022-10-16T09:33:12;101341.97;;;10.59;86.15
41254;BME280;26987;59.928;30.306;2022-10-16T09:35:42;101336.88;;;10.65;86.22
41254;BME280;26987;59.928;30.306;2022-10-16T09:38:22;101333.00;;;10.74;86.33
41254;BME280;26987;59.928;30.306;2022-10-16T09:40:50;101341.78;;;10.61;86.23
41254;BME280;26987;59.928;30.306;2022-10-16T09:43:25;101335.00;;;10.65;86.10
41254;BME280;26987;59.928;30.306;2022-10-16T09:45:59;101336.69;;;10.66;86.29
41254;BME280;26987;59.928;30.306;2022-10-16T09:48:30;101328.84;;;10.71;85.92
41254;BME280;26987;59.928;30.306;2022-10-16T09:51:01;101325.16;;;10.72;85.89
41254;BME280;26987;59.928;30.306;2022-10-16T09:53:41;101332.81;;;10.76;85.82
41254;BME280;26987;59.928;30.306;2022-10-16T09:56:11;101332.56;;;10.70;86.05
41254;BME280;26987;59.928;30.306;2022-10-16T09:58:49;101325.22;;;10.79;85.67
41254;BME280;26987;59.928;30.306;2022-10-16T10:01:19;101320.81;;;10.71;85.75
41254;BME280;26987;59.928;30.306;2022-10-16T10:03:47;101317.28;;;10.71;86.27
41254;BME280;26987;59.928;30.306;2022-10-16T10:06:21;101336.53;;;10.75;85.97
41254;BME280;26987;59.928;30.306;2022-10-16T10:08:55;101347.25;;;10.75;86.61
41254;BME280;26987;59.928;30.306;2022-10-16T10:11:44;101345.34;;;10.68;86.42
41254;BME280;26987;59.928;30.306;2022-10-16T10:14:19;101359.78;;;10.67;87.04
41254;BME280;26987;59.928;30.306;2022-10-16T10:16:49;101358.06;;;10.59;87.14
41254;BME280;26987;59.928;30.306;2022-10-16T10:19:19;101354.28;;;10.54;87.56
41254;BME280;26987;59.928;30.306;2022-10-16T10:21:47;101354.28;;;10.54;87.56
41254;BME280;26987;59.928;30.306;2022-10-16T10:24:17;101352.41;;;10.54;87.87
41254;BME280;26987;59.928;30.306;2022-10-16T10:26:53;101347.97;;;10.62;87.99
41254;BME280;26987;59.928;30.306;2022-10-16T10:29:45;101347.63;;;10.71;88.68
41254;BME280;26987;59.928;30.306;2022-10-16T10:32:23;101355.03;;;10.69;89.56
41254;BME280;26987;59.928;30.306;2022-10-16T10:35:11;101345.09;;;10.63;90.16
41254;BME280;26987;59.928;30.306;2022-10-16T10:37:54;101351.59;;;10.76;90.13
41254;BME280;26987;59.928;30.306;2022-10-16T10:40:34;101347.53;;;10.80;89.86
41254;BME280;26987;59.928;30.306;2022-10-16T10:43:09;101347.91;;;10.77;89.59
41254;BME280;26987;59.928;30.306;2022-10-16T10:45:45;101354.53;;;10.81;88.87
41254;BME280;26987;59.928;30.306;2022-10-16T10:48:22;101348.53;;;10.79;89.43
41254;BME280;26987;59.928;30.306;2022-10-16T10:50:56;101338.75;;;10.71;89.06
41254;BME280;26987;59.928;30.306;2022-10-16T10:53:36;101347.00;;;10.69;88.58
41254;BME280;26987;59.928;30.306;2022-10-16T10:56:18;101348.03;;;10.68;89.11
41254;BME280;26987;59.928;30.306;2022-10-16T10:59:01;101347.97;;;10.62;88.68
41254;BME280;26987;59.928;30.306;2022-10-16T11:01:39;101350.66;;;10.62;88.66
41254;BME280;26987;59.928;30.306;2022-10-16T11:04:30;101342.16;;;10.58;89.00
41254;BME280;26987;59.928;30.306;2022-10-16T11:07:04;101336.81;;;10.43;89.19
41254;BME280;26987;59.928;30.306;2022-10-16T11:09:36;101325.63;;;10.39;89.84
41254;BME280;26987;59.928;30.306;2022-10-16T11:12:12;101343.03;;;10.43;90.20
41254;BME280;26987;59.928;30.306;2022-10-16T11:14:48;101326.66;;;10.38;90.54
41254;BME280;26987;59.928;30.306;2022-10-16T11:17:21;101321.44;;;10.30;90.99
41254;BME280;26987;59.928;30.306;2022-10-16T11:19:55;101316.47;;;10.27;91.05
41254;BME280;26987;59.928;30.306;2022-10-16T11:22:30;101321.56;;;10.21;91.51
41254;BME280;26987;59.928;30.306;2022-10-16T11:25:06;101326.91;;;10.21;91.86
41254;BME280;26987;59.928;30.306;2022-10-16T11:27:42;101333.03;;;10.15;92.70
41254;BME280;26987;59.928;30.306;2022-10-16T11:30:15;101328.69;;;10.14;93.07
41254;BME280;26987;59.928;30.306;2022-10-16T11:32:56;101335.09;;;10.13;93.12
41254;BME280;26987;59.928;30.306;2022-10-16T11:35:38;101338.75;;;10.12;93.47
41254;BME280;26987;59.928;30.306;2022-10-16T11:38:14;101332.50;;;10.05;93.82
41254;BME280;26987;59.928;30.306;2022-10-16T11:40:43;101336.13;;;9.97;94.22
41254;BME280;26987;59.928;30.306;2022-10-16T11:43:17;101334.28;;;9.97;94.98
41254;BME280;26987;59.928;30.306;2022-10-16T11:45:50;101330.50;;;9.92;95.29
41254;BME280;26987;59.928;30.306;2022-10-16T11:48:26;101343.44;;;9.88;95.71
41254;BME280;26987;59.928;30.306;2022-10-16T11:50:57;101340.50;;;9.83;96.12
41254;BME280;26987;59.928;30.306;2022-10-16T11:53:39;101341.31;;;9.83;96.75
41254;BME280;26987;59.928;30.306;2022-10-16T11:56:12;101336.19;;;9.82;96.32
41254;BME280;26987;59.928;30.306;2022-10-16T11:58:48;101332.84;;;9.80;96.64
41254;BME280;26987;59.928;30.306;2022-10-16T12:01:22;101333.28;;;9.83;97.23
41254;BME280;26987;59.928;30.306;2022-10-16T12:04:05;101326.75;;;9.86;97.37
41254;BME280;26987;59.928;30.306;2022-10-16T12:06:41;101320.84;;;9.76;97.66
41254;BME280;26987;59.928;30.306;2022-10-16T12:09:15;101327.09;;;9.83;97.92
41254;BME280;26987;59.928;30.306;2022-10-16T12:11:47;101332.38;;;9.76;98.04
41254;BME280;26987;59.928;30.306;2022-10-16T12:14:21;101332.00;;;9.79;98.15
41254;BME280;26987;59.928;30.306;2022-10-16T12:16:54;101326.81;;;9.78;98.51
41254;BME280;26987;59.928;30.306;2022-10-16T12:19:26;101309.78;;;9.64;98.47
41254;BME280;26987;59.928;30.306;2022-10-16T12:21:56;101323.91;;;9.73;99.16
41254;BME280;26987;59.928;30.306;2022-10-16T12:24:36;101323.53;;;9.76;99.57
41254;BME280;26987;59.928;30.306;2022-10-16T12:27:06;101321.59;;;9.69;99.88
41254;BME280;26987;59.928;30.306;2022-10-16T12:29:46;101330.25;;;9.71;100.00
41254;BME280;26987;59.928;30.306;2022-10-16T12:32:25;101310.56;;;9.79;100.00
41254;BME280;26987;59.928;30.306;2022-10-16T12:34:56;101313.44;;;9.78;100.00
41254;BME280;26987;59.928;30.306;2022-10-16T12:37:28;101306.06;;;9.80;100.00
41254;BME280;26987;59.928;30.306;2022-10-16T12:39:59;101300.69;;;9.80;100.00
41254;BME280;26987;59.928;30.306;2022-10-16T12:42:39;101288.06;;;9.74;100.00
41254;BME280;26987;59.928;30.306;2022-10-16T12:45:27;101295.72;;;9.77;100.00
41254;BME280;26987;59.928;30.306;2022-10-16T12:47:55;101293.53;;;9.65;100.00
41254;BME280;26987;59.928;30.306;2022-10-16T12:50:33;101296.75;;;9.76;100.00
41254;BME280;26987;59.928;30.306;2022-10-16T12:53:03;101293.78;;;9.70;100.00
41254;BME280;26987;59.928;30.306;2022-10-16T12:55:47;101292.00;;;9.78;100.00
41254;BME280;26987;59.928;30.306;2022-10-16T12:58:33;101291.25;;;9.84;100.00
41254;BME280;26987;59.928;30.306;2022-10-16T13:01:13;101292.91;;;9.85;100.00
41254;BME280;26987;59.928;30.306;2022-10-16T13:04:03;101289.44;;;9.84;100.00
41254;BME280;26987;59.928;30.306;2022-10-16T13:06:40;101279.28;;;9.80;100.00
41254;BME280;26987;59.928;30.306;2022-10-16T13:09:33;101286.75;;;9.84;100.00